Time;durP1;ratioP1;P1;durP2;ratioP2;P2;SDS_P1;SDS_P2;PMS_P1;PMS_P2;Temp;Humidity;BMP_temperature;BMP_pressure;BME280_temperature;BME280_humidity;BME280_pressure;Samples;Min_cycle;Max_cycle;Signal;HPM_P1;HPM_P2
2021/08/22 00:01:37;;;;;;;;;;;18.90;99.90;;;;;;5096812;28;19908;-60
2021/08/22 00:04:02;;;;;;;;;;;18.90;99.90;;;;;;5095574;28;19987;-62
2021/08/22 00:06:28;;;;;;;;;;;18.80;99.90;;;;;;5097272;28;19904;-62
2021/08/22 00:08:54;;;;;;;;;;;18.70;99.90;;;;;;5097067;28;19910;-61
2021/08/22 00:11:19;;;;;;;;;;;18.70;99.90;;;;;;5097293;28;19904;-61
2021/08/22 00:13:44;;;;;;;;;;;18.60;99.90;;;;;;5096584;28;19908;-62
2021/08/22 00:16:10;;;;;;;;;;;18.60;99.90;;;;;;5096554;28;20087;-62
2021/08/22 00:18:35;;;;;;;;;;;18.50;99.90;;;;;;5096692;28;19983;-62
2021/08/22 00:21:01;;;;;;;;;;;18.50;99.90;;;;;;5096392;28;19935;-62
2021/08/22 00:23:28;;;;;;;;;;;18.20;99.90;;;;;;5095517;28;19987;-60
2021/08/22 00:25:54;;;;;;;;;;;18.20;99.90;;;;;;5096813;28;19946;-61
2021/08/22 00:28:19;;;;;;;;;;;18.10;99.90;;;;;;5096500;28;19904;-63
2021/08/22 00:30:45;;;;;;;;;;;18.00;99.90;;;;;;5095040;28;19904;-63
2021/08/22 00:33:10;;;;;;;;;;;18.00;99.90;;;;;;5096322;28;19957;-63
2021/08/22 00:35:36;;;;;;;;;;;18.00;99.90;;;;;;5096035;28;20336;-62
2021/08/22 00:38:01;;;;;;;;;;;18.20;99.90;;;;;;5096146;28;20384;-63
2021/08/22 00:40:27;;;;;;;;;;;18.30;99.90;;;;;;5096130;28;20033;-63
2021/08/22 00:42:52;;;;;;;;;;;18.10;99.90;;;;;;5096220;28;19984;-63
2021/08/22 00:45:18;;;;;;;;;;;18.10;99.90;;;;;;5095907;28;20331;-63
2021/08/22 00:47:47;;;;;;;;;;;18.40;99.90;;;;;;5096406;28;19904;-63
2021/08/22 00:50:14;;;;;;;;;;;18.30;99.90;;;;;;5097022;28;19904;-63
2021/08/22 00:52:40;;;;;;;;;;;18.40;99.90;;;;;;5095616;28;19972;-63
2021/08/22 00:55:06;;;;;;;;;;;18.20;99.90;;;;;;5096169;28;19904;-63
2021/08/22 00:57:32;;;;;;;;;;;18.10;99.90;;;;;;5095745;28;19908;-63
2021/08/22 00:59:59;;;;;;;;;;;18.20;99.90;;;;;;5095828;28;19908;-63
2021/08/22 01:02:28;;;;;;;;;;;18.10;99.90;;;;;;5095765;28;20268;-63
2021/08/22 01:05:00;;;;;;;;;;;18.10;99.90;;;;;;5095620;28;19915;-62
2021/08/22 01:07:36;;;;;;;;;;;18.30;99.90;;;;;;5095934;28;19904;-63
2021/08/22 01:10:04;;;;;;;;;;;18.20;99.90;;;;;;5095659;28;19916;-63
2021/08/22 01:12:33;;;;;;;;;;;18.30;99.90;;;;;;5095562;28;20269;-63
2021/08/22 01:15:06;;;;;;;;;;;18.30;99.90;;;;;;5095540;28;19908;-63
2021/08/22 01:17:36;;;;;;;;;;;18.40;99.90;;;;;;5095449;28;19904;-63
2021/08/22 01:20:01;;;;;;;;;;;18.40;99.90;;;;;;5095406;28;20246;-62
2021/08/22 01:22:27;;;;;;;;;;;18.30;99.90;;;;;;5095632;28;19904;-62
2021/08/22 01:24:53;;;;;;;;;;;18.30;99.90;;;;;;5095268;28;19991;-63
2021/08/22 01:27:19;;;;;;;;;;;18.40;99.90;;;;;;5095582;28;20360;-62
2021/08/22 01:30:05;;;;;;;;;;;18.30;99.90;;;;;;5095679;28;20029;-63
2021/08/22 01:32:34;;;;;;;;;;;18.30;99.90;;;;;;5094863;28;19910;-62
2021/08/22 01:35:00;;;;;;;;;;;18.30;99.90;;;;;;5095187;28;19904;-62
2021/08/22 01:37:26;;;;;;;;;;;18.40;99.90;;;;;;5094986;28;19943;-62
2021/08/22 01:39:52;;;;;;;;;;;18.30;99.90;;;;;;5095010;28;19916;-62
2021/08/22 01:42:18;;;;;;;;;;;18.40;99.90;;;;;;5095316;28;19904;-65
2021/08/22 01:44:44;;;;;;;;;;;18.40;99.90;;;;;;5095007;28;19904;-64
2021/08/22 01:47:10;;;;;;;;;;;18.40;99.90;;;;;;5094898;28;19904;-63
2021/08/22 01:49:35;;;;;;;;;;;18.40;99.90;;;;;;5094769;28;19939;-62
2021/08/22 01:52:01;;;;;;;;;;;18.40;99.90;;;;;;5094739;28;19912;-63
2021/08/22 01:54:27;;;;;;;;;;;18.40;99.90;;;;;;5094726;28;19943;-63
2021/08/22 01:56:52;;;;;;;;;;;18.40;99.90;;;;;;5094847;28;20048;-63
2021/08/22 01:59:18;;;;;;;;;;;18.40;99.90;;;;;;5095022;28;19904;-63
2021/08/22 02:01:44;;;;;;;;;;;18.40;99.90;;;;;;5094950;28;19915;-63
2021/08/22 02:04:16;;;;;;;;;;;18.40;99.90;;;;;;5094111;28;19904;-63
2021/08/22 02:06:47;;;;;;;;;;;18.40;99.90;;;;;;5094253;28;19910;-61
2021/08/22 02:09:13;;;;;;;;;;;18.40;99.90;;;;;;5094635;28;20252;-62
2021/08/22 02:11:38;;;;;;;;;;;18.40;99.90;;;;;;5094325;28;19904;-61
2021/08/22 02:14:05;;;;;;;;;;;18.40;99.90;;;;;;5094232;28;19934;-61
2021/08/22 02:16:32;;;;;;;;;;;18.40;99.90;;;;;;5094979;28;20250;-66
2021/08/22 02:18:58;;;;;;;;;;;18.30;99.90;;;;;;5094249;28;19904;-66
2021/08/22 02:21:24;;;;;;;;;;;18.30;99.90;;;;;;5093863;28;19908;-66
2021/08/22 02:23:52;;;;;;;;;;;18.30;99.90;;;;;;5094097;28;19911;-67
2021/08/22 02:26:18;;;;;;;;;;;18.30;99.90;;;;;;5094053;28;19912;-66
2021/08/22 02:28:50;;;;;;;;;;;18.30;99.90;;;;;;5094000;28;19904;-66
2021/08/22 02:31:16;;;;;;;;;;;18.20;99.90;;;;;;5094231;28;19927;-66
2021/08/22 02:33:41;;;;;;;;;;;18.20;99.90;;;;;;5094093;28;19904;-66
2021/08/22 02:36:07;;;;;;;;;;;18.20;99.90;;;;;;5093857;28;19904;-66
2021/08/22 02:38:32;;;;;;;;;;;18.20;99.90;;;;;;5093771;28;19911;-67
2021/08/22 02:40:58;;;;;;;;;;;18.30;99.90;;;;;;5093678;28;20003;-67
2021/08/22 02:43:23;;;;;;;;;;;18.30;99.90;;;;;;5093886;28;19940;-66
2021/08/22 02:45:49;;;;;;;;;;;18.20;99.90;;;;;;5093639;28;19935;-66
2021/08/22 02:48:14;;;;;;;;;;;18.20;99.90;;;;;;5094010;28;19904;-66
2021/08/22 02:50:41;;;;;;;;;;;18.20;99.90;;;;;;5092617;28;19935;-66
2021/08/22 02:53:06;;;;;;;;;;;18.20;99.90;;;;;;5093892;28;19919;-66
2021/08/22 02:55:32;;;;;;;;;;;18.20;99.90;;;;;;5094043;28;19998;-66
2021/08/22 02:57:58;;;;;;;;;;;18.20;99.90;;;;;;5093549;28;19910;-66
2021/08/22 03:00:23;;;;;;;;;;;18.20;99.90;;;;;;5093413;28;19947;-66
2021/08/22 03:02:49;;;;;;;;;;;18.10;99.90;;;;;;5093378;28;19908;-66
2021/08/22 03:05:14;;;;;;;;;;;18.20;99.90;;;;;;5093270;28;20288;-66
2021/08/22 03:07:40;;;;;;;;;;;18.20;99.90;;;;;;5093210;28;20289;-66
2021/08/22 03:10:05;;;;;;;;;;;18.10;99.90;;;;;;5093537;28;19930;-66
2021/08/22 03:12:31;;;;;;;;;;;18.10;99.90;;;;;;5093260;28;20100;-66
2021/08/22 03:14:57;;;;;;;;;;;18.10;99.90;;;;;;5093205;28;19904;-66
2021/08/22 03:17:22;;;;;;;;;;;18.00;99.90;;;;;;5093122;28;19911;-66
2021/08/22 03:19:48;;;;;;;;;;;18.00;99.90;;;;;;5093262;28;20329;-66
2021/08/22 03:22:13;;;;;;;;;;;18.00;99.90;;;;;;5093958;28;19907;-66
2021/08/22 03:24:39;;;;;;;;;;;18.00;99.90;;;;;;5092106;28;19904;-66
2021/08/22 03:27:04;;;;;;;;;;;18.00;99.90;;;;;;5093249;28;20347;-66
2021/08/22 03:29:30;;;;;;;;;;;18.00;99.90;;;;;;5093316;28;19910;-66
2021/08/22 03:31:55;;;;;;;;;;;18.00;99.90;;;;;;5093312;28;19999;-66
2021/08/22 03:34:21;;;;;;;;;;;17.90;99.90;;;;;;5092997;28;20004;-66
2021/08/22 03:36:46;;;;;;;;;;;17.90;99.90;;;;;;5093256;28;19910;-66
2021/08/22 03:39:12;;;;;;;;;;;18.00;99.90;;;;;;5093107;28;20295;-66
2021/08/22 03:41:37;;;;;;;;;;;18.00;99.90;;;;;;5093203;28;19908;-66
2021/08/22 03:44:04;;;;;;;;;;;18.00;99.90;;;;;;5092912;28;19904;-66
2021/08/22 03:46:29;;;;;;;;;;;18.00;99.90;;;;;;5093121;28;19904;-66
2021/08/22 03:48:55;;;;;;;;;;;17.90;99.90;;;;;;5093014;28;19990;-66
2021/08/22 03:51:23;;;;;;;;;;;18.00;99.90;;;;;;5092564;28;19977;-67
2021/08/22 03:53:49;;;;;;;;;;;18.00;99.90;;;;;;5093566;28;19908;-66
2021/08/22 03:56:16;;;;;;;;;;;17.90;99.90;;;;;;5093059;28;20444;-66
2021/08/22 03:58:42;;;;;;;;;;;17.90;99.90;;;;;;5093062;28;19904;-66
2021/08/22 04:01:07;;;;;;;;;;;17.90;99.90;;;;;;5093074;28;19908;-66
2021/08/22 04:03:33;;;;;;;;;;;18.00;99.90;;;;;;5092824;28;19904;-67
2021/08/22 04:05:59;;;;;;;;;;;18.00;99.90;;;;;;5092975;28;19954;-66
2021/08/22 04:08:25;;;;;;;;;;;18.00;99.90;;;;;;5093008;28;20305;-66
2021/08/22 04:10:51;;;;;;;;;;;18.00;99.90;;;;;;5092659;28;20320;-66
2021/08/22 04:13:16;;;;;;;;;;;18.10;99.90;;;;;;5092672;28;19903;-67
2021/08/22 04:15:43;;;;;;;;;;;18.00;99.90;;;;;;5092746;28;20254;-67
2021/08/22 04:18:08;;;;;;;;;;;18.10;99.90;;;;;;5092803;28;20349;-67
2021/08/22 04:20:34;;;;;;;;;;;18.10;99.90;;;;;;5092570;28;19919;-67
2021/08/22 04:22:59;;;;;;;;;;;18.10;99.90;;;;;;5092668;28;19904;-66
2021/08/22 04:25:25;;;;;;;;;;;18.30;99.90;;;;;;5092545;28;19904;-67
2021/08/22 04:27:50;;;;;;;;;;;18.20;99.90;;;;;;5093099;28;20338;-67
2021/08/22 04:30:16;;;;;;;;;;;18.30;99.90;;;;;;5096388;28;19928;-67
2021/08/22 04:32:41;;;;;;;;;;;18.30;99.90;;;;;;5096223;28;19977;-67
2021/08/22 04:35:07;;;;;;;;;;;18.30;99.90;;;;;;5094854;28;19904;-67
2021/08/22 04:37:33;;;;;;;;;;;18.60;99.90;;;;;;5095063;28;19904;-67
2021/08/22 04:39:59;;;;;;;;;;;18.50;99.90;;;;;;5097188;28;19912;-67
2021/08/22 04:42:24;;;;;;;;;;;18.50;99.90;;;;;;5096487;28;19911;-67
2021/08/22 04:44:50;;;;;;;;;;;18.50;99.90;;;;;;5097077;28;20349;-67
2021/08/22 04:47:15;;;;;;;;;;;18.80;99.90;;;;;;5096003;28;19904;-67
2021/08/22 04:49:41;;;;;;;;;;;18.70;99.90;;;;;;5095953;28;19904;-67
2021/08/22 04:52:06;;;;;;;;;;;18.60;99.90;;;;;;5095723;28;19919;-67
2021/08/22 04:54:32;;;;;;;;;;;18.60;99.90;;;;;;5095947;28;19994;-67
2021/08/22 04:56:57;;;;;;;;;;;18.60;99.90;;;;;;5096146;28;20342;-67
2021/08/22 04:59:24;;;;;;;;;;;18.70;99.90;;;;;;5095746;28;19910;-67
2021/08/22 05:01:50;;;;;;;;;;;18.70;99.90;;;;;;5095627;28;20010;-67
2021/08/22 05:04:16;;;;;;;;;;;18.70;99.90;;;;;;5095523;28;19935;-67
2021/08/22 05:06:41;;;;;;;;;;;18.60;99.90;;;;;;5095615;28;20358;-67
2021/08/22 05:09:07;;;;;;;;;;;18.60;99.90;;;;;;5095436;28;20280;-67
2021/08/22 05:11:33;;;;;;;;;;;18.60;99.90;;;;;;5095476;28;20257;-67
2021/08/22 05:13:59;;;;;;;;;;;18.60;99.90;;;;;;5096408;28;19926;-67
2021/08/22 05:16:24;;;;;;;;;;;18.50;99.90;;;;;;5095503;28;19904;-67
2021/08/22 05:18:50;;;;;;;;;;;18.60;99.90;;;;;;5095693;28;19904;-67
2021/08/22 05:21:15;;;;;;;;;;;18.70;99.90;;;;;;5093940;28;19908;-67
2021/08/22 05:23:41;;;;;;;;;;;18.90;99.90;;;;;;5095436;28;19915;-67
2021/08/22 05:26:06;;;;;;;;;;;18.90;99.90;;;;;;5095371;28;19961;-67
2021/08/22 05:28:31;;;;;;;;;;;18.80;99.90;;;;;;5095268;28;20351;-67
2021/08/22 05:30:57;;;;;;;;;;;18.90;99.90;;;;;;5095033;28;19910;-67
2021/08/22 05:33:22;;;;;;;;;;;18.90;99.90;;;;;;5094977;28;19911;-66
2021/08/22 05:35:48;;;;;;;;;;;18.80;99.90;;;;;;5095303;28;19908;-67
2021/08/22 05:38:13;;;;;;;;;;;18.80;99.90;;;;;;5094916;28;20349;-67
2021/08/22 05:40:39;;;;;;;;;;;18.80;99.90;;;;;;5093723;28;19908;-67
2021/08/22 05:43:04;;;;;;;;;;;18.80;99.90;;;;;;5094876;28;20279;-66
2021/08/22 05:45:30;;;;;;;;;;;18.80;99.90;;;;;;5094883;28;19904;-67
2021/08/22 05:47:55;;;;;;;;;;;18.80;99.90;;;;;;5095679;28;19927;-67
2021/08/22 05:50:21;;;;;;;;;;;18.90;99.90;;;;;;5095332;28;19912;-67
2021/08/22 05:52:46;;;;;;;;;;;19.00;99.90;;;;;;5093061;28;20353;-67
2021/08/22 05:55:12;;;;;;;;;;;19.10;99.90;;;;;;5094566;28;19912;-67
2021/08/22 05:57:37;;;;;;;;;;;19.10;99.90;;;;;;5094477;28;20013;-67
2021/08/22 06:00:04;;;;;;;;;;;19.10;99.90;;;;;;5094675;28;19904;-67
2021/08/22 06:02:31;;;;;;;;;;;19.10;99.90;;;;;;5094444;28;19959;-67
2021/08/22 06:04:56;;;;;;;;;;;19.10;99.90;;;;;;5094444;28;19904;-67
2021/08/22 06:07:23;;;;;;;;;;;19.10;99.90;;;;;;5094465;28;19924;-67
2021/08/22 06:09:49;;;;;;;;;;;19.10;99.90;;;;;;5094311;28;20384;-66
2021/08/22 06:12:16;;;;;;;;;;;19.20;99.90;;;;;;5094274;28;20014;-66
2021/08/22 06:14:42;;;;;;;;;;;19.20;99.90;;;;;;5092857;28;19912;-66
2021/08/22 06:17:07;;;;;;;;;;;19.30;99.90;;;;;;5094204;28;19910;-66
2021/08/22 06:19:33;;;;;;;;;;;19.20;99.90;;;;;;5094251;28;20011;-69
2021/08/22 06:21:58;;;;;;;;;;;19.30;99.90;;;;;;5093868;28;19999;-67
2021/08/22 06:24:24;;;;;;;;;;;19.40;99.90;;;;;;5093790;28;19935;-67
2021/08/22 06:26:49;;;;;;;;;;;19.40;99.90;;;;;;5094104;28;19973;-67
2021/08/22 06:29:15;;;;;;;;;;;19.50;99.90;;;;;;5094173;28;19904;-67
2021/08/22 06:31:40;;;;;;;;;;;19.50;99.90;;;;;;5093806;28;19904;-67
2021/08/22 06:34:07;;;;;;;;;;;19.70;99.90;;;;;;5093685;28;19904;-67
2021/08/22 06:36:38;;;;;;;;;;;19.60;99.90;;;;;;5093755;28;19947;-67
2021/08/22 06:39:03;;;;;;;;;;;19.60;99.90;;;;;;5093728;28;19911;-67
2021/08/22 06:41:29;;;;;;;;;;;19.60;99.90;;;;;;5093870;28;19999;-67
2021/08/22 06:43:54;;;;;;;;;;;19.60;99.90;;;;;;5093456;28;19904;-67
2021/08/22 06:46:20;;;;;;;;;;;19.60;99.90;;;;;;5093541;28;19929;-67
2021/08/22 06:48:45;;;;;;;;;;;19.70;99.90;;;;;;5093489;28;20463;-67
2021/08/22 06:51:11;;;;;;;;;;;19.70;99.90;;;;;;5093171;28;19908;-67
2021/08/22 06:53:36;;;;;;;;;;;19.90;99.90;;;;;;5093430;28;20353;-67
2021/08/22 06:56:02;;;;;;;;;;;19.80;99.90;;;;;;5093534;28;19914;-67
2021/08/22 06:58:27;;;;;;;;;;;19.80;99.90;;;;;;5093455;28;20414;-67
2021/08/22 07:00:53;;;;;;;;;;;19.80;99.90;;;;;;5093605;28;19908;-67
2021/08/22 07:03:18;;;;;;;;;;;19.90;99.90;;;;;;5093851;28;19904;-67
2021/08/22 07:05:43;;;;;;;;;;;19.90;99.90;;;;;;5093791;28;19945;-67
2021/08/22 07:08:09;;;;;;;;;;;20.00;99.90;;;;;;5093446;28;19926;-67
2021/08/22 07:10:34;;;;;;;;;;;20.30;99.90;;;;;;5093104;28;19904;-66
2021/08/22 07:13:00;;;;;;;;;;;20.30;99.90;;;;;;5093328;28;20317;-66
2021/08/22 07:15:25;;;;;;;;;;;20.40;99.90;;;;;;5092886;28;19984;-66
2021/08/22 07:17:51;;;;;;;;;;;20.60;99.90;;;;;;5093553;28;20345;-66
2021/08/22 07:20:16;;;;;;;;;;;20.70;99.90;;;;;;5093080;28;20007;-66
2021/08/22 07:22:42;;;;;;;;;;;20.70;99.90;;;;;;5092889;28;19908;-65
2021/08/22 07:25:07;;;;;;;;;;;20.70;99.90;;;;;;5092829;28;19926;-66
2021/08/22 07:27:33;;;;;;;;;;;20.70;99.90;;;;;;5093434;28;19911;-66
2021/08/22 07:29:58;;;;;;;;;;;20.70;99.90;;;;;;5093241;28;20369;-66
2021/08/22 07:32:24;;;;;;;;;;;20.80;99.90;;;;;;5092880;28;19938;-66
2021/08/22 07:34:50;;;;;;;;;;;20.90;99.90;;;;;;5092960;28;19961;-66
2021/08/22 07:37:16;;;;;;;;;;;20.90;99.90;;;;;;5093185;28;19911;-66
2021/08/22 07:39:41;;;;;;;;;;;21.00;99.90;;;;;;5093082;28;19908;-66
2021/08/22 07:42:07;;;;;;;;;;;21.00;99.90;;;;;;5093043;28;19915;-66
2021/08/22 07:44:33;;;;;;;;;;;21.10;99.90;;;;;;5092740;28;19904;-66
2021/08/22 07:46:58;;;;;;;;;;;21.20;99.90;;;;;;5092560;28;20357;-66
2021/08/22 07:49:24;;;;;;;;;;;21.20;99.90;;;;;;5092941;28;19904;-66
2021/08/22 07:51:49;;;;;;;;;;;21.30;99.90;;;;;;5092059;28;19943;-67
2021/08/22 07:54:15;;;;;;;;;;;21.30;99.90;;;;;;5092498;28;19911;-66
2021/08/22 07:56:41;;;;;;;;;;;21.30;99.90;;;;;;5092617;28;19904;-66
2021/08/22 07:59:07;;;;;;;;;;;21.40;99.90;;;;;;5092705;28;20302;-66
2021/08/22 08:01:32;;;;;;;;;;;21.40;99.90;;;;;;5092509;28;19916;-66
2021/08/22 08:03:58;;;;;;;;;;;21.50;99.90;;;;;;5094958;28;19930;-66
2021/08/22 08:06:23;;;;;;;;;;;21.50;99.90;;;;;;5095411;28;19910;-66
2021/08/22 08:08:49;;;;;;;;;;;21.60;99.90;;;;;;5096539;28;19958;-66
2021/08/22 08:11:14;;;;;;;;;;;21.70;99.90;;;;;;5096550;28;20353;-67
2021/08/22 08:13:40;;;;;;;;;;;21.70;99.90;;;;;;5096966;28;19911;-66
2021/08/22 08:16:05;;;;;;;;;;;21.50;99.90;;;;;;5097532;28;19958;-63
2021/08/22 08:18:31;;;;;;;;;;;21.60;99.90;;;;;;5095187;28;19904;-63
2021/08/22 08:20:56;;;;;;;;;;;21.80;99.90;;;;;;5096275;28;20353;-63
2021/08/22 08:23:22;;;;;;;;;;;22.00;99.90;;;;;;5096733;28;20379;-63
2021/08/22 08:25:47;;;;;;;;;;;22.10;99.90;;;;;;5094886;28;20364;-63
2021/08/22 08:28:13;;;;;;;;;;;22.20;99.90;;;;;;5096381;28;19904;-63
2021/08/22 08:30:38;;;;;;;;;;;22.30;99.90;;;;;;5096376;28;19904;-63
2021/08/22 08:33:04;;;;;;;;;;;22.30;99.90;;;;;;5096350;28;19904;-63
2021/08/22 08:35:30;;;;;;;;;;;22.20;99.90;;;;;;5095886;28;19969;-61
2021/08/22 08:37:55;;;;;;;;;;;22.10;99.90;;;;;;5096643;28;20355;-62
2021/08/22 08:40:21;;;;;;;;;;;22.10;99.90;;;;;;5096584;28;19950;-63
2021/08/22 08:42:50;;;;;;;;;;;22.10;99.90;;;;;;5096207;28;19957;-63
2021/08/22 08:45:28;;;;;;;;;;;22.10;99.90;;;;;;5094671;28;19904;-63
2021/08/22 08:47:53;;;;;;;;;;;22.10;99.90;;;;;;5096209;28;19904;-63
2021/08/22 08:50:33;;;;;;;;;;;22.20;99.90;;;;;;5096261;28;20406;-62
2021/08/22 08:53:05;;;;;;;;;;;22.20;99.90;;;;;;5096239;28;19916;-62
2021/08/22 08:55:35;;;;;;;;;;;22.20;99.90;;;;;;5096203;28;19922;-65
2021/08/22 08:58:01;;;;;;;;;;;22.30;99.90;;;;;;5096158;28;19979;-64
2021/08/22 09:00:33;;;;;;;;;;;22.40;99.90;;;;;;5095779;28;20006;-64
2021/08/22 09:03:00;;;;;;;;;;;22.30;99.90;;;;;;5095594;28;20293;-64
2021/08/22 09:05:32;;;;;;;;;;;22.30;99.90;;;;;;5098451;28;20320;-64
2021/08/22 09:08:04;;;;;;;;;;;22.10;99.90;;;;;;5095669;28;19904;-63
2021/08/22 09:10:32;;;;;;;;;;;21.90;99.90;;;;;;5095641;28;19904;-63
2021/08/22 09:13:04;;;;;;;;;;;21.60;99.90;;;;;;5096586;28;19988;-62
2021/08/22 09:15:48;;;;;;;;;;;21.30;99.90;;;;;;5095372;28;19998;-63
2021/08/22 09:18:32;;;;;;;;;;;20.80;99.90;;;;;;5095763;28;19953;-64
2021/08/22 09:21:16;;;;;;;;;;;20.40;99.90;;;;;;5096479;28;19961;-66
2021/08/22 09:24:00;;;;;;;;;;;20.10;99.90;;;;;;5095896;28;19916;-65
2021/08/22 09:26:41;;;;;;;;;;;19.70;99.90;;;;;;5095457;28;20382;-66
2021/08/22 09:29:09;;;;;;;;;;;19.40;99.90;;;;;;5095311;28;19908;-66
2021/08/22 09:31:53;;;;;;;;;;;19.10;99.90;;;;;;5095101;28;19911;-66
2021/08/22 09:34:31;;;;;;;;;;;18.80;99.90;;;;;;5095012;28;19904;-66
2021/08/22 09:37:09;;;;;;;;;;;18.40;99.90;;;;;;5095091;28;20350;-66
2021/08/22 09:39:53;;;;;;;;;;;18.30;99.90;;;;;;5095555;28;20421;-66
2021/08/22 09:42:22;;;;;;;;;;;18.20;99.90;;;;;;5093601;28;19930;-66
2021/08/22 09:45:06;;;;;;;;;;;18.30;99.90;;;;;;5095714;28;20003;-66
2021/08/22 09:47:47;;;;;;;;;;;18.20;99.90;;;;;;5095152;28;20202;-66
2021/08/22 09:50:33;;;;;;;;;;;18.10;99.90;;;;;;5095183;28;19943;-66
2021/08/22 09:53:17;;;;;;;;;;;18.00;99.90;;;;;;5094901;28;20423;-66
2021/08/22 09:56:01;;;;;;;;;;;17.80;99.90;;;;;;5095114;28;19970;-66
2021/08/22 09:58:29;;;;;;;;;;;17.90;99.90;;;;;;5094946;28;19957;-67
2021/08/22 10:01:13;;;;;;;;;;;17.80;99.90;;;;;;5094540;28;19962;-67
2021/08/22 10:03:47;;;;;;;;;;;17.90;99.90;;;;;;5094523;28;19904;-67
2021/08/22 10:06:32;;;;;;;;;;;17.90;99.90;;;;;;5093612;28;19908;-67
2021/08/22 10:09:05;;;;;;;;;;;18.00;99.90;;;;;;5094595;28;19969;-67
2021/08/22 10:11:54;;;;;;;;;;;18.10;99.90;;;;;;5094657;28;19930;-67
2021/08/22 10:14:20;;;;;;;;;;;18.30;99.90;;;;;;5091484;28;19918;-67
2021/08/22 10:16:49;;;;;;;;;;;18.60;99.90;;;;;;5094414;28;19904;-67
2021/08/22 10:19:14;;;;;;;;;;;18.60;99.90;;;;;;5094173;28;19904;-67
2021/08/22 10:21:40;;;;;;;;;;;18.60;99.90;;;;;;5094022;28;20422;-67
2021/08/22 10:24:24;;;;;;;;;;;18.50;99.90;;;;;;5094023;28;19911;-67
2021/08/22 10:26:58;;;;;;;;;;;18.60;99.90;;;;;;5093590;28;20325;-67
2021/08/22 10:29:28;;;;;;;;;;;18.50;99.90;;;;;;5094112;28;19911;-67
2021/08/22 10:31:54;;;;;;;;;;;18.70;99.90;;;;;;5094024;28;19908;-66
2021/08/22 10:34:21;;;;;;;;;;;18.60;99.90;;;;;;5094476;28;19904;-66
2021/08/22 10:36:46;;;;;;;;;;;18.60;99.90;;;;;;5094358;28;19904;-68
2021/08/22 10:39:22;;;;;;;;;;;18.70;99.90;;;;;;5094430;28;19908;-66
2021/08/22 10:41:47;;;;;;;;;;;18.90;99.90;;;;;;5094109;28;19908;-66
2021/08/22 10:44:32;;;;;;;;;;;18.80;99.90;;;;;;5093826;28;20356;-66
2021/08/22 10:46:57;;;;;;;;;;;18.70;99.90;;;;;;5094036;28;19969;-66
2021/08/22 10:49:41;;;;;;;;;;;18.60;99.90;;;;;;5094202;28;20357;-66
2021/08/22 10:52:22;;;;;;;;;;;18.60;99.90;;;;;;5093555;28;19912;-66
2021/08/22 10:55:05;;;;;;;;;;;18.60;99.90;;;;;;5093839;28;19908;-66
2021/08/22 10:57:51;;;;;;;;;;;18.60;99.90;;;;;;5093800;28;19908;-66
2021/08/22 11:00:30;;;;;;;;;;;18.50;99.90;;;;;;5093626;28;19904;-66
2021/08/22 11:02:55;;;;;;;;;;;18.40;99.90;;;;;;5093966;28;19904;-66
2021/08/22 11:05:22;;;;;;;;;;;18.40;99.90;;;;;;5093751;28;20380;-65
2021/08/22 11:07:51;;;;;;;;;;;18.40;99.90;;;;;;5094006;28;20332;-65
2021/08/22 11:10:17;;;;;;;;;;;18.40;99.90;;;;;;5093662;28;19923;-64
2021/08/22 11:12:43;;;;;;;;;;;18.40;99.90;;;;;;5092158;28;19908;-66
2021/08/22 11:15:21;;;;;;;;;;;18.50;99.90;;;;;;5093560;28;20026;-64
2021/08/22 11:17:56;;;;;;;;;;;18.60;99.90;;;;;;5093846;28;19904;-65
2021/08/22 11:20:24;;;;;;;;;;;18.70;99.90;;;;;;5093606;28;20371;-64
2021/08/22 11:23:00;;;;;;;;;;;18.70;99.90;;;;;;5092432;28;19911;-64
2021/08/22 11:25:26;;;;;;;;;;;18.70;99.90;;;;;;5093971;28;19904;-65
2021/08/22 11:28:02;;;;;;;;;;;18.70;99.90;;;;;;5093932;28;20319;-64
2021/08/22 11:30:28;;;;;;;;;;;18.70;99.90;;;;;;5094020;28;20350;-65
2021/08/22 11:32:54;;;;;;;;;;;18.90;99.90;;;;;;5093596;28;19904;-65
2021/08/22 11:35:24;;;;;;;;;;;18.90;99.90;;;;;;5093454;28;19904;-65
2021/08/22 11:37:50;;;;;;;;;;;18.90;99.90;;;;;;5090943;28;19926;-65
2021/08/22 11:40:17;;;;;;;;;;;19.10;99.90;;;;;;5093245;28;20313;-65
2021/08/22 11:42:46;;;;;;;;;;;19.10;99.90;;;;;;5093184;28;19904;-65
2021/08/22 11:45:13;;;;;;;;;;;19.10;99.90;;;;;;5093171;28;20395;-65
2021/08/22 11:47:39;;;;;;;;;;;19.40;99.90;;;;;;5092936;28;19911;-65
2021/08/22 11:50:06;;;;;;;;;;;19.50;99.90;;;;;;5092891;28;20288;-65
2021/08/22 11:52:33;;;;;;;;;;;19.70;99.90;;;;;;5093081;28;19912;-64
2021/08/22 11:54:58;;;;;;;;;;;19.80;99.90;;;;;;5093009;28;20049;-64
2021/08/22 11:57:26;;;;;;;;;;;19.80;99.90;;;;;;5092047;28;19904;-64
2021/08/22 11:59:58;;;;;;;;;;;19.90;99.90;;;;;;5094154;28;19908;-64
2021/08/22 12:02:25;;;;;;;;;;;20.00;99.90;;;;;;5093061;28;19908;-64
2021/08/22 12:05:09;;;;;;;;;;;20.00;99.90;;;;;;5093504;28;19903;-64
2021/08/22 12:07:35;;;;;;;;;;;20.00;99.90;;;;;;5092292;28;20332;-64
2021/08/22 12:10:00;;;;;;;;;;;19.90;99.90;;;;;;5093128;28;19904;-64
2021/08/22 12:12:26;;;;;;;;;;;20.00;99.90;;;;;;5091590;28;19911;-64
2021/08/22 12:14:51;;;;;;;;;;;20.00;99.90;;;;;;5093047;28;20416;-64
2021/08/22 12:17:26;;;;;;;;;;;20.00;99.90;;;;;;5093591;28;19990;-64
2021/08/22 12:19:51;;;;;;;;;;;19.90;99.90;;;;;;5093435;28;19908;-64
2021/08/22 12:22:17;;;;;;;;;;;19.80;99.90;;;;;;5092995;28;19915;-64
2021/08/22 12:24:46;;;;;;;;;;;19.70;99.90;;;;;;5093246;28;20019;-64
2021/08/22 12:27:24;;;;;;;;;;;19.80;99.90;;;;;;5092937;28;20014;-64
2021/08/22 12:30:03;;;;;;;;;;;19.80;99.90;;;;;;5093117;28;19908;-64
2021/08/22 12:32:34;;;;;;;;;;;19.90;99.90;;;;;;5093536;28;19904;-63
2021/08/22 12:35:03;;;;;;;;;;;20.00;99.90;;;;;;5093036;28;19904;-64
2021/08/22 12:37:28;;;;;;;;;;;20.10;99.90;;;;;;5092677;28;19995;-64
2021/08/22 12:39:58;;;;;;;;;;;20.10;99.90;;;;;;5093024;28;19936;-64
2021/08/22 12:42:23;;;;;;;;;;;20.30;99.90;;;;;;5092567;28;19924;-64
2021/08/22 12:44:49;;;;;;;;;;;20.30;99.90;;;;;;5092576;28;19969;-64
2021/08/22 12:47:14;;;;;;;;;;;20.30;99.90;;;;;;5092721;28;19934;-64
2021/08/22 12:49:40;;;;;;;;;;;20.30;99.90;;;;;;5094303;28;20334;-64
2021/08/22 12:52:06;;;;;;;;;;;20.30;99.90;;;;;;5096108;28;19916;-64
2021/08/22 12:54:32;;;;;;;;;;;20.40;99.90;;;;;;5096367;28;19935;-63
2021/08/22 12:56:59;;;;;;;;;;;20.50;99.90;;;;;;5095969;28;19980;-64
2021/08/22 12:59:25;;;;;;;;;;;20.50;99.90;;;;;;5096062;28;20037;-64
2021/08/22 13:01:51;;;;;;;;;;;20.60;99.90;;;;;;5095875;28;20002;-64
2021/08/22 13:04:17;;;;;;;;;;;20.60;99.90;;;;;;5095772;28;19904;-64
2021/08/22 13:06:42;;;;;;;;;;;20.70;99.90;;;;;;5096013;28;19919;-63
2021/08/22 13:09:08;;;;;;;;;;;20.60;99.90;;;;;;5096072;28;19904;-64
2021/08/22 13:11:35;;;;;;;;;;;20.60;99.90;;;;;;5095691;28;19999;-64
2021/08/22 13:14:00;;;;;;;;;;;20.50;99.90;;;;;;5095786;28;20428;-63
2021/08/22 13:16:26;;;;;;;;;;;20.40;99.90;;;;;;5095672;28;19969;-64
2021/08/22 13:18:53;;;;;;;;;;;20.40;99.90;;;;;;5095523;28;19912;-64
2021/08/22 13:21:19;;;;;;;;;;;20.50;99.90;;;;;;5095661;28;19914;-63
2021/08/22 13:23:44;;;;;;;;;;;20.50;99.90;;;;;;5095500;28;19904;-63
2021/08/22 13:26:11;;;;;;;;;;;20.40;99.90;;;;;;5095513;28;19903;-64
2021/08/22 13:28:37;;;;;;;;;;;20.30;99.90;;;;;;5095428;28;20002;-64
2021/08/22 13:31:03;;;;;;;;;;;20.30;99.90;;;;;;5095495;28;19908;-64
2021/08/22 13:33:29;;;;;;;;;;;20.30;99.90;;;;;;5095496;28;19907;-64
2021/08/22 13:35:54;;;;;;;;;;;20.30;99.90;;;;;;5095314;28;20246;-64
2021/08/22 13:38:20;;;;;;;;;;;20.30;99.90;;;;;;5095226;28;19916;-64
2021/08/22 13:40:45;;;;;;;;;;;20.30;99.90;;;;;;5094923;28;19973;-64
2021/08/22 13:43:12;;;;;;;;;;;20.30;99.90;;;;;;5094965;28;19910;-64
2021/08/22 13:45:37;;;;;;;;;;;20.30;99.90;;;;;;5094756;28;20345;-64
2021/08/22 13:48:03;;;;;;;;;;;20.40;99.90;;;;;;5095012;28;19908;-64
2021/08/22 13:50:32;;;;;;;;;;;20.30;99.90;;;;;;5094878;28;19918;-64
2021/08/22 13:52:59;;;;;;;;;;;20.30;99.90;;;;;;5094855;28;19918;-64
2021/08/22 13:55:24;;;;;;;;;;;20.30;99.90;;;;;;5095077;28;19904;-64
2021/08/22 13:57:50;;;;;;;;;;;20.30;99.90;;;;;;5094925;28;19911;-64
2021/08/22 14:00:15;;;;;;;;;;;20.10;99.90;;;;;;5094100;28;19904;-64
2021/08/22 14:02:41;;;;;;;;;;;20.00;99.90;;;;;;5093293;28;19950;-64
2021/08/22 14:05:07;;;;;;;;;;;19.80;99.90;;;;;;5094770;28;20268;-64
2021/08/22 14:07:32;;;;;;;;;;;19.70;99.90;;;;;;5094733;28;19973;-64
2021/08/22 14:09:58;;;;;;;;;;;19.50;99.90;;;;;;5094646;28;20409;-64
2021/08/22 14:12:24;;;;;;;;;;;19.40;99.90;;;;;;5094998;28;19904;-63
2021/08/22 14:14:49;;;;;;;;;;;19.30;99.90;;;;;;5094731;28;19915;-63
2021/08/22 14:17:15;;;;;;;;;;;19.20;99.90;;;;;;5094924;28;19904;-64
2021/08/22 14:19:41;;;;;;;;;;;19.10;99.90;;;;;;5094515;28;19915;-64